sensor_id;sensor_type;location;lat;lon;timestamp;pressure;altitude;pressure_sealevel;temperature;humidity
8039;BME280;4062;49.844;8.120;2023-03-15T00:00:06;98987.63;;;14.23;54.28
8039;BME280;4062;49.844;8.120;2023-03-15T00:02:10;98988.47;;;14.23;54.30
8039;BME280;4062;49.844;8.120;2023-03-15T00:04:12;98997.34;;;14.24;54.07
8039;BME280;4062;49.844;8.120;2023-03-15T00:06:13;99000.00;;;14.24;54.27
8039;BME280;4062;49.844;8.120;2023-03-15T00:08:15;98998.25;;;14.23;54.15
8039;BME280;4062;49.844;8.120;2023-03-15T00:10:16;98998.25;;;14.23;54.11
8039;BME280;4062;49.844;8.120;2023-03-15T00:12:18;99000.00;;;14.24;54.27
8039;BME280;4062;49.844;8.120;2023-03-15T00:14:19;98998.19;;;14.25;54.07
8039;BME280;4062;49.844;8.120;2023-03-15T00:16:20;99000.84;;;14.25;54.25
8039;BME280;4062;49.844;8.120;2023-03-15T00:18:21;99000.00;;;14.24;54.14
8039;BME280;4062;49.844;8.120;2023-03-15T00:20:25;99010.63;;;14.24;54.24
8039;BME280;4062;49.844;8.120;2023-03-15T00:22:25;99000.00;;;14.24;53.87
8039;BME280;4062;49.844;8.120;2023-03-15T00:24:26;99006.16;;;14.25;54.07
8039;BME280;4062;49.844;8.120;2023-03-15T00:26:27;99007.97;;;14.24;54.08
8039;BME280;4062;49.844;8.120;2023-03-15T00:28:28;99004.38;;;14.25;54.30
8039;BME280;4062;49.844;8.120;2023-03-15T00:30:29;99005.31;;;14.24;54.13
8039;BME280;4062;49.844;8.120;2023-03-15T00:32:31;99008.81;;;14.25;54.40
8039;BME280;4062;49.844;8.120;2023-03-15T00:34:32;99008.81;;;14.25;54.25
8039;BME280;4062;49.844;8.120;2023-03-15T00:36:33;99009.69;;;14.25;54.24
8039;BME280;4062;49.844;8.120;2023-03-15T00:38:36;99007.97;;;14.24;54.23
8039;BME280;4062;49.844;8.120;2023-03-15T00:40:37;99010.63;;;14.24;54.09
8039;BME280;4062;49.844;8.120;2023-03-15T00:42:39;99008.88;;;14.23;54.26
8039;BME280;4062;49.844;8.120;2023-03-15T00:44:43;99017.72;;;14.23;54.20
8039;BME280;4062;49.844;8.120;2023-03-15T00:46:44;99013.28;;;14.24;54.18
8039;BME280;4062;49.844;8.120;2023-03-15T00:48:50;99028.34;;;14.23;54.28
8039;BME280;4062;49.844;8.120;2023-03-15T00:51:08;99028.34;;;14.23;54.13
8039;BME280;4062;49.844;8.120;2023-03-15T00:53:09;99035.47;;;14.23;54.21
8039;BME280;4062;49.844;8.120;2023-03-15T00:55:14;99038.97;;;14.23;54.13
8039;BME280;4062;49.844;8.120;2023-03-15T00:57:15;99041.69;;;14.22;54.06
8039;BME280;4062;49.844;8.120;2023-03-15T00:59:16;99039.94;;;14.22;54.16
8039;BME280;4062;49.844;8.120;2023-03-15T01:01:27;99044.34;;;14.22;54.29
8039;BME280;4062;49.844;8.120;2023-03-15T01:03:28;99046.16;;;14.21;54.32
8039;BME280;4062;49.844;8.120;2023-03-15T01:05:29;99042.63;;;14.21;54.27
8039;BME280;4062;49.844;8.120;2023-03-15T01:07:31;99039.97;;;14.21;54.14
8039;BME280;4062;49.844;8.120;2023-03-15T01:09:35;99046.16;;;14.21;54.35
8039;BME280;4062;49.844;8.120;2023-03-15T01:11:36;99045.28;;;14.21;54.27
8039;BME280;4062;49.844;8.120;2023-03-15T01:13:37;99047.94;;;14.21;53.77
8039;BME280;4062;49.844;8.120;2023-03-15T01:15:38;99043.56;;;14.20;54.26
8039;BME280;4062;49.844;8.120;2023-03-15T01:17:40;99049.75;;;14.20;54.27
8039;BME280;4062;49.844;8.120;2023-03-15T01:19:41;99049.75;;;14.20;54.17
8039;BME280;4062;49.844;8.120;2023-03-15T01:21:42;99043.56;;;14.20;54.24
8039;BME280;4062;49.844;8.120;2023-03-15T01:23:44;99048.88;;;14.20;54.51
8039;BME280;4062;49.844;8.120;2023-03-15T01:25:44;99051.53;;;14.20;54.27
8039;BME280;4062;49.844;8.120;2023-03-15T01:27:45;99051.53;;;14.20;54.20
8039;BME280;4062;49.844;8.120;2023-03-15T01:29:46;99057.78;;;14.19;54.10
8039;BME280;4062;49.844;8.120;2023-03-15T01:31:49;99058.66;;;14.19;54.13
8039;BME280;4062;49.844;8.120;2023-03-15T01:34:00;99052.47;;;14.19;54.35
8039;BME280;4062;49.844;8.120;2023-03-15T01:36:06;99057.78;;;14.19;54.11
8039;BME280;4062;49.844;8.120;2023-03-15T01:38:08;99058.66;;;14.19;54.27
8039;BME280;4062;49.844;8.120;2023-03-15T01:40:12;99056.06;;;14.18;54.38
8039;BME280;4062;49.844;8.120;2023-03-15T01:42:14;99064.03;;;14.18;54.35
8039;BME280;4062;49.844;8.120;2023-03-15T01:44:18;99058.72;;;14.18;54.36
8039;BME280;4062;49.844;8.120;2023-03-15T01:46:29;99060.44;;;14.19;54.21
8039;BME280;4062;49.844;8.120;2023-03-15T01:48:55;99062.25;;;14.18;54.21
8039;BME280;4062;49.844;8.120;2023-03-15T01:53:24;99058.72;;;14.18;54.20
8039;BME280;4062;49.844;8.120;2023-03-15T01:55:27;99064.91;;;14.18;54.31
8039;BME280;4062;49.844;8.120;2023-03-15T01:57:50;99056.91;;;14.18;54.34
8039;BME280;4062;49.844;8.120;2023-03-15T02:00:05;99056.06;;;14.18;54.22
8039;BME280;4062;49.844;8.120;2023-03-15T02:02:22;99052.53;;;14.17;54.43
8039;BME280;4062;49.844;8.120;2023-03-15T02:04:29;99054.25;;;14.18;54.26
8039;BME280;4062;49.844;8.120;2023-03-15T02:06:31;99056.91;;;14.18;54.34
8039;BME280;4062;49.844;8.120;2023-03-15T02:08:40;99056.06;;;14.18;54.32
8039;BME280;4062;49.844;8.120;2023-03-15T02:10:50;99059.66;;;14.17;54.33
8039;BME280;4062;49.844;8.120;2023-03-15T02:12:55;99067.56;;;14.18;54.25
8039;BME280;4062;49.844;8.120;2023-03-15T02:15:00;99065.81;;;14.17;54.19
8039;BME280;4062;49.844;8.120;2023-03-15T02:17:04;99083.50;;;14.18;54.19
8039;BME280;4062;49.844;8.120;2023-03-15T02:19:19;99072.00;;;14.18;54.14
8039;BME280;4062;49.844;8.120;2023-03-15T02:21:58;99073.78;;;14.17;54.23
8039;BME280;4062;49.844;8.120;2023-03-15T02:24:07;99075.59;;;14.17;54.21
8039;BME280;4062;49.844;8.120;2023-03-15T02:26:43;99079.97;;;14.18;54.14
8039;BME280;4062;49.844;8.120;2023-03-15T02:28:45;99081.75;;;14.17;54.39
8039;BME280;4062;49.844;8.120;2023-03-15T02:30:47;99077.31;;;14.18;54.34
8039;BME280;4062;49.844;8.120;2023-03-15T02:32:49;99074.72;;;14.16;54.30
8039;BME280;4062;49.844;8.120;2023-03-15T02:34:51;99084.41;;;14.17;54.30
8039;BME280;4062;49.844;8.120;2023-03-15T02:36:52;99095.94;;;14.18;54.32
8039;BME280;4062;49.844;8.120;2023-03-15T02:38:55;99095.03;;;14.17;54.22
8039;BME280;4062;49.844;8.120;2023-03-15T02:40:56;99093.28;;;14.18;54.45
8039;BME280;4062;49.844;8.120;2023-03-15T02:43:08;99098.59;;;14.18;54.19
8039;BME280;4062;49.844;8.120;2023-03-15T02:45:11;99103.91;;;14.18;53.95
8039;BME280;4062;49.844;8.120;2023-03-15T02:47:18;99106.56;;;14.18;54.25
8039;BME280;4062;49.844;8.120;2023-03-15T02:49:24;99111.88;;;14.18;54.20
8039;BME280;4062;49.844;8.120;2023-03-15T02:51:28;99116.31;;;14.17;54.26
8039;BME280;4062;49.844;8.120;2023-03-15T02:53:31;99113.66;;;14.17;54.23
8039;BME280;4062;49.844;8.120;2023-03-15T02:55:33;99119.84;;;14.18;54.36
8039;BME280;4062;49.844;8.120;2023-03-15T02:57:34;99118.09;;;14.17;54.22
8039;BME280;4062;49.844;8.120;2023-03-15T02:59:35;99124.28;;;14.17;54.30
8039;BME280;4062;49.844;8.120;2023-03-15T03:01:36;99113.66;;;14.17;54.15
8039;BME280;4062;49.844;8.120;2023-03-15T03:03:37;99115.38;;;14.18;54.39
8039;BME280;4062;49.844;8.120;2023-03-15T03:05:37;99117.19;;;14.18;54.25
8039;BME280;4062;49.844;8.120;2023-03-15T03:07:39;99122.50;;;14.18;54.34
8039;BME280;4062;49.844;8.120;2023-03-15T03:09:42;99127.81;;;14.18;54.40
8039;BME280;4062;49.844;8.120;2023-03-15T03:11:45;99123.44;;;14.17;54.26
8039;BME280;4062;49.844;8.120;2023-03-15T03:13:47;99132.25;;;14.17;54.39
8039;BME280;4062;49.844;8.120;2023-03-15T03:15:50;99129.59;;;14.17;54.34
8039;BME280;4062;49.844;8.120;2023-03-15T03:18:00;99126.94;;;14.17;54.27
8039;BME280;4062;49.844;8.120;2023-03-15T03:20:09;99134.06;;;14.17;54.30
8039;BME280;4062;49.844;8.120;2023-03-15T03:22:16;99129.66;;;14.16;54.19
8039;BME280;4062;49.844;8.120;2023-03-15T03:24:19;99139.38;;;14.17;54.19
8039;BME280;4062;49.844;8.120;2023-03-15T03:26:20;99142.03;;;14.17;54.23
8039;BME280;4062;49.844;8.120;2023-03-15T03:28:27;99140.28;;;14.16;54.27
8039;BME280;4062;49.844;8.120;2023-03-15T03:30:28;99133.16;;;14.16;54.29
8039;BME280;4062;49.844;8.120;2023-03-15T03:32:29;99140.28;;;14.16;54.50
8039;BME280;4062;49.844;8.120;2023-03-15T03:34:30;99133.16;;;14.16;54.45
8039;BME280;4062;49.844;8.120;2023-03-15T03:36:31;99136.72;;;14.17;54.36
8039;BME280;4062;49.844;8.120;2023-03-15T03:38:32;99142.03;;;14.17;54.20
8039;BME280;4062;49.844;8.120;2023-03-15T03:40:37;99133.16;;;14.16;54.21
8039;BME280;4062;49.844;8.120;2023-03-15T03:42:40;99129.66;;;14.16;54.29
8039;BME280;4062;49.844;8.120;2023-03-15T03:44:41;99130.50;;;14.16;54.21
8039;BME280;4062;49.844;8.120;2023-03-15T03:46:42;99128.75;;;14.17;54.21
8039;BME280;4062;49.844;8.120;2023-03-15T03:48:43;99131.44;;;14.15;54.28
8039;BME280;4062;49.844;8.120;2023-03-15T03:50:44;99134.97;;;14.16;54.10
8039;BME280;4062;49.844;8.120;2023-03-15T03:52:45;99126.13;;;14.15;54.33
8039;BME280;4062;49.844;8.120;2023-03-15T03:54:53;99119.97;;;14.15;54.11
8039;BME280;4062;49.844;8.120;2023-03-15T03:56:54;99126.13;;;14.15;54.41
8039;BME280;4062;49.844;8.120;2023-03-15T03:58:59;99127.94;;;14.15;54.29
8039;BME280;4062;49.844;8.120;2023-03-15T04:01:12;99131.44;;;14.15;54.28
8039;BME280;4062;49.844;8.120;2023-03-15T04:03:14;99138.56;;;14.15;54.20
8039;BME280;4062;49.844;8.120;2023-03-15T04:05:20;99143.88;;;14.15;54.46
8039;BME280;4062;49.844;8.120;2023-03-15T04:07:21;99144.72;;;14.15;54.22
8039;BME280;4062;49.844;8.120;2023-03-15T04:09:31;99150.97;;;14.14;54.37
8039;BME280;4062;49.844;8.120;2023-03-15T04:11:39;99155.44;;;14.14;54.17
8039;BME280;4062;49.844;8.120;2023-03-15T04:13:43;99155.44;;;14.14;54.28
8039;BME280;4062;49.844;8.120;2023-03-15T04:15:47;99160.75;;;14.14;54.37
8039;BME280;4062;49.844;8.120;2023-03-15T04:17:50;99158.09;;;14.14;54.39
8039;BME280;4062;49.844;8.120;2023-03-15T04:19:59;99168.72;;;14.14;54.29
8039;BME280;4062;49.844;8.120;2023-03-15T04:22:08;99172.22;;;14.14;54.37
8039;BME280;4062;49.844;8.120;2023-03-15T04:24:35;99171.38;;;14.14;54.25
8039;BME280;4062;49.844;8.120;2023-03-15T04:27:02;99169.56;;;14.14;54.23
8039;BME280;4062;49.844;8.120;2023-03-15T04:29:24;99165.19;;;14.13;54.46
8039;BME280;4062;49.844;8.120;2023-03-15T04:31:33;99153.69;;;14.13;54.28
8039;BME280;4062;49.844;8.120;2023-03-15T04:33:53;99156.28;;;14.14;54.21
8039;BME280;4062;49.844;8.120;2023-03-15T04:36:10;99160.75;;;14.14;54.17
8039;BME280;4062;49.844;8.120;2023-03-15T04:38:44;99162.53;;;14.13;54.28
8039;BME280;4062;49.844;8.120;2023-03-15T04:41:07;99151.03;;;14.13;54.26
8039;BME280;4062;49.844;8.120;2023-03-15T04:43:33;99159.88;;;14.13;54.33
8039;BME280;4062;49.844;8.120;2023-03-15T04:46:10;99159.88;;;14.13;54.37
8039;BME280;4062;49.844;8.120;2023-03-15T04:48:30;99157.28;;;14.12;54.39
8039;BME280;4062;49.844;8.120;2023-03-15T04:51:01;99163.47;;;14.12;54.30
8039;BME280;4062;49.844;8.120;2023-03-15T04:53:14;99165.25;;;14.12;54.31
8039;BME280;4062;49.844;8.120;2023-03-15T04:55:29;99167.91;;;14.12;54.66
8039;BME280;4062;49.844;8.120;2023-03-15T04:57:39;99166.97;;;14.13;54.18
8039;BME280;4062;49.844;8.120;2023-03-15T05:00:01;99164.31;;;14.13;54.33
8039;BME280;4062;49.844;8.120;2023-03-15T05:02:26;99175.88;;;14.12;54.49
8039;BME280;4062;49.844;8.120;2023-03-15T05:04:46;99179.41;;;14.12;54.43
8039;BME280;4062;49.844;8.120;2023-03-15T05:06:54;99178.53;;;14.12;54.39
8039;BME280;4062;49.844;8.120;2023-03-15T05:09:13;99178.53;;;14.12;54.32
8039;BME280;4062;49.844;8.120;2023-03-15T05:11:51;99173.22;;;14.12;54.27
8039;BME280;4062;49.844;8.120;2023-03-15T05:14:16;99172.38;;;14.11;54.38
8039;BME280;4062;49.844;8.120;2023-03-15T05:16:44;99174.13;;;14.11;54.47
8039;BME280;4062;49.844;8.120;2023-03-15T05:19:19;99171.47;;;14.11;54.47
8039;BME280;4062;49.844;8.120;2023-03-15T05:21:51;99172.38;;;14.11;54.48
8039;BME280;4062;49.844;8.120;2023-03-15T05:24:30;99170.63;;;14.10;54.25
8039;BME280;4062;49.844;8.120;2023-03-15T05:26:49;99170.63;;;14.10;54.34
8039;BME280;4062;49.844;8.120;2023-03-15T05:29:13;99179.44;;;14.11;54.43
8039;BME280;4062;49.844;8.120;2023-03-15T05:31:29;99180.38;;;14.10;54.41
8039;BME280;4062;49.844;8.120;2023-03-15T05:33:42;99180.38;;;14.10;54.52
8039;BME280;4062;49.844;8.120;2023-03-15T05:36:06;99191.00;;;14.10;54.27
8039;BME280;4062;49.844;8.120;2023-03-15T05:38:28;99196.31;;;14.10;54.34
8039;BME280;4062;49.844;8.120;2023-03-15T05:40:44;99188.34;;;14.10;54.50
8039;BME280;4062;49.844;8.120;2023-03-15T05:43:11;99192.81;;;14.09;54.40
8039;BME280;4062;49.844;8.120;2023-03-15T05:45:45;99191.00;;;14.10;54.55
8039;BME280;4062;49.844;8.120;2023-03-15T05:48:14;99192.81;;;14.09;54.44
8039;BME280;4062;49.844;8.120;2023-03-15T05:50:28;99200.78;;;14.09;54.47
8039;BME280;4062;49.844;8.120;2023-03-15T05:52:50;99209.59;;;14.10;54.41
8039;BME280;4062;49.844;8.120;2023-03-15T05:55:10;99213.16;;;14.10;54.31
8039;BME280;4062;49.844;8.120;2023-03-15T05:57:29;99215.88;;;14.09;54.27
8039;BME280;4062;49.844;8.120;2023-03-15T05:59:31;99222.03;;;14.09;54.42
8039;BME280;4062;49.844;8.120;2023-03-15T06:01:52;99217.66;;;14.08;54.55
8039;BME280;4062;49.844;8.120;2023-03-15T06:04:03;99224.69;;;14.09;54.29
8039;BME280;4062;49.844;8.120;2023-03-15T06:06:06;99226.50;;;14.09;54.29
8039;BME280;4062;49.844;8.120;2023-03-15T06:08:13;99226.50;;;14.09;54.41
8039;BME280;4062;49.844;8.120;2023-03-15T06:10:17;99223.84;;;14.09;54.42
8039;BME280;4062;49.844;8.120;2023-03-15T06:12:19;99236.97;;;14.12;54.18
8039;BME280;4062;49.844;8.120;2023-03-15T06:14:20;99234.31;;;14.12;54.24
8039;BME280;4062;49.844;8.120;2023-03-15T06:16:24;99249.22;;;14.16;54.14
8039;BME280;4062;49.844;8.120;2023-03-15T06:18:28;99245.56;;;14.18;54.24
8039;BME280;4062;49.844;8.120;2023-03-15T06:20:29;99252.53;;;14.21;53.96
8039;BME280;4062;49.844;8.120;2023-03-15T06:22:39;99256.84;;;14.23;54.08
8039;BME280;4062;49.844;8.120;2023-03-15T06:24:49;99253.22;;;14.26;54.16
8039;BME280;4062;49.844;8.120;2023-03-15T06:26:50;99262.78;;;14.30;53.97
8039;BME280;4062;49.844;8.120;2023-03-15T06:28:55;99265.44;;;14.30;54.18
8039;BME280;4062;49.844;8.120;2023-03-15T06:30:57;99270.63;;;14.33;54.17
8039;BME280;4062;49.844;8.120;2023-03-15T06:33:06;99263.47;;;14.35;54.15
8039;BME280;4062;49.844;8.120;2023-03-15T06:35:09;99266.88;;;14.39;54.03
8039;BME280;4062;49.844;8.120;2023-03-15T06:37:10;99267.72;;;14.39;54.11
8039;BME280;4062;49.844;8.120;2023-03-15T06:39:13;99262.31;;;14.41;54.15
8039;BME280;4062;49.844;8.120;2023-03-15T06:41:15;99266.69;;;14.44;53.96
8039;BME280;4062;49.844;8.120;2023-03-15T06:43:17;99264.88;;;14.44;54.04
8039;BME280;4062;49.844;8.120;2023-03-15T06:45:20;99274.56;;;14.45;53.97
8039;BME280;4062;49.844;8.120;2023-03-15T06:47:21;99270.09;;;14.46;54.07
8039;BME280;4062;49.844;8.120;2023-03-15T06:49:22;99276.31;;;14.46;53.99
8039;BME280;4062;49.844;8.120;2023-03-15T06:51:24;99272.72;;;14.47;54.07
8039;BME280;4062;49.844;8.120;2023-03-15T06:53:25;99270.06;;;14.47;53.80
8039;BME280;4062;49.844;8.120;2023-03-15T06:55:26;99258.50;;;14.48;54.10
8039;BME280;4062;49.844;8.120;2023-03-15T06:57:27;99255.84;;;14.48;53.95
8039;BME280;4062;49.844;8.120;2023-03-15T06:59:28;99251.44;;;14.47;54.04
8039;BME280;4062;49.844;8.120;2023-03-15T07:01:29;99257.63;;;14.48;54.13
8039;BME280;4062;49.844;8.120;2023-03-15T07:03:30;99264.66;;;14.49;53.91
8039;BME280;4062;49.844;8.120;2023-03-15T07:05:31;99268.25;;;14.48;53.94
8039;BME280;4062;49.844;8.120;2023-03-15T07:07:32;99262.00;;;14.49;54.04
8039;BME280;4062;49.844;8.120;2023-03-15T07:09:33;99272.66;;;14.49;54.03
8039;BME280;4062;49.844;8.120;2023-03-15T07:11:35;99272.66;;;14.49;54.10
8039;BME280;4062;49.844;8.120;2023-03-15T07:13:36;99277.97;;;14.49;53.72
8039;BME280;4062;49.844;8.120;2023-03-15T07:15:40;99281.53;;;14.48;53.84
8039;BME280;4062;49.844;8.120;2023-03-15T07:17:41;99275.38;;;14.47;53.98
8039;BME280;4062;49.844;8.120;2023-03-15T07:19:42;99280.69;;;14.47;54.02
8039;BME280;4062;49.844;8.120;2023-03-15T07:21:43;99278.97;;;14.46;53.89
8039;BME280;4062;49.844;8.120;2023-03-15T07:23:44;99282.47;;;14.47;53.95
8039;BME280;4062;49.844;8.120;2023-03-15T07:25:46;99276.38;;;14.45;53.80
8039;BME280;4062;49.844;8.120;2023-03-15T07:27:48;99288.78;;;14.44;54.09
8039;BME280;4062;49.844;8.120;2023-03-15T07:29:50;99287.97;;;14.42;54.17
8039;BME280;4062;49.844;8.120;2023-03-15T07:31:53;99282.66;;;14.42;54.05
8039;BME280;4062;49.844;8.120;2023-03-15T07:33:54;99292.44;;;14.42;54.28
8039;BME280;4062;49.844;8.120;2023-03-15T07:35:55;99292.44;;;14.42;54.05
8039;BME280;4062;49.844;8.120;2023-03-15T07:37:56;99294.22;;;14.41;53.86
8039;BME280;4062;49.844;8.120;2023-03-15T07:39:57;99295.19;;;14.40;54.23
8039;BME280;4062;49.844;8.120;2023-03-15T07:42:01;99299.63;;;14.39;54.06
8039;BME280;4062;49.844;8.120;2023-03-15T07:44:11;99297.03;;;14.38;54.15
8039;BME280;4062;49.844;8.120;2023-03-15T07:46:13;99310.31;;;14.38;53.89
8039;BME280;4062;49.844;8.120;2023-03-15T07:48:14;99301.47;;;14.37;54.07
8039;BME280;4062;49.844;8.120;2023-03-15T07:50:20;99311.25;;;14.37;54.13
8039;BME280;4062;49.844;8.120;2023-03-15T07:52:23;99309.50;;;14.36;54.07
8039;BME280;4062;49.844;8.120;2023-03-15T07:54:24;99309.50;;;14.36;54.12
8039;BME280;4062;49.844;8.120;2023-03-15T07:56:25;99311.31;;;14.35;54.06
8039;BME280;4062;49.844;8.120;2023-03-15T07:58:31;99309.59;;;14.34;54.07
8039;BME280;4062;49.844;8.120;2023-03-15T08:00:32;99314.00;;;14.34;54.20
8039;BME280;4062;49.844;8.120;2023-03-15T08:02:33;99322.88;;;14.34;54.04
8039;BME280;4062;49.844;8.120;2023-03-15T08:04:34;99330.84;;;14.34;54.23
8039;BME280;4062;49.844;8.120;2023-03-15T08:06:35;99340.59;;;14.34;54.17
8039;BME280;4062;49.844;8.120;2023-03-15T08:08:36;99339.75;;;14.33;54.18
8039;BME280;4062;49.844;8.120;2023-03-15T08:10:37;99340.66;;;14.32;54.21
8039;BME280;4062;49.844;8.120;2023-03-15T08:12:42;99347.75;;;14.32;54.05
8039;BME280;4062;49.844;8.120;2023-03-15T08:14:43;99352.22;;;14.31;54.10
8039;BME280;4062;49.844;8.120;2023-03-15T08:16:44;99343.41;;;14.31;54.24
8039;BME280;4062;49.844;8.120;2023-03-15T08:18:45;99343.44;;;14.29;54.14
8039;BME280;4062;49.844;8.120;2023-03-15T08:20:46;99350.50;;;14.30;54.26
8039;BME280;4062;49.844;8.120;2023-03-15T08:23:13;99351.41;;;14.29;54.10
8039;BME280;4062;49.844;8.120;2023-03-15T08:25:22;99355.88;;;14.29;54.31
8039;BME280;4062;49.844;8.120;2023-03-15T08:27:27;99350.56;;;14.29;54.15
8039;BME280;4062;49.844;8.120;2023-03-15T08:29:31;99356.72;;;14.29;54.14
8039;BME280;4062;49.844;8.120;2023-03-15T08:31:33;99349.69;;;14.28;54.05
8039;BME280;4062;49.844;8.120;2023-03-15T08:33:34;99347.91;;;14.29;54.14
8039;BME280;4062;49.844;8.120;2023-03-15T08:35:35;99361.94;;;14.32;54.19
8039;BME280;4062;49.844;8.120;2023-03-15T08:37:36;99356.63;;;14.32;54.04
8039;BME280;4062;49.844;8.120;2023-03-15T08:39:38;99362.75;;;14.34;53.89
8039;BME280;4062;49.844;8.120;2023-03-15T08:41:40;99362.59;;;14.37;53.85
8039;BME280;4062;49.844;8.120;2023-03-15T08:43:41;99364.31;;;14.38;54.03
8039;BME280;4062;49.844;8.120;2023-03-15T08:45:42;99369.53;;;14.42;53.74
8039;BME280;4062;49.844;8.120;2023-03-15T08:47:43;99373.00;;;14.44;53.71
8039;BME280;4062;49.844;8.120;2023-03-15T08:49:44;99380.91;;;14.45;53.90
8039;BME280;4062;49.844;8.120;2023-03-15T08:51:45;99384.41;;;14.46;53.70
8039;BME280;4062;49.844;8.120;2023-03-15T08:53:49;99390.63;;;14.46;53.85
8039;BME280;4062;49.844;8.120;2023-03-15T08:55:54;99386.16;;;14.47;53.79
8039;BME280;4062;49.844;8.120;2023-03-15T08:57:55;99398.50;;;14.48;54.19
8039;BME280;4062;49.844;8.120;2023-03-15T09:00:00;99392.34;;;14.47;53.95
8039;BME280;4062;49.844;8.120;2023-03-15T09:02:01;99395.94;;;14.46;54.08
8039;BME280;4062;49.844;8.120;2023-03-15T09:04:03;99399.50;;;14.45;53.96
8039;BME280;4062;49.844;8.120;2023-03-15T09:06:05;99396.84;;;14.45;53.84
8039;BME280;4062;49.844;8.120;2023-03-15T09:08:06;99402.16;;;14.45;53.94
8039;BME280;4062;49.844;8.120;2023-03-15T09:10:09;99401.31;;;14.45;53.95
8039;BME280;4062;49.844;8.120;2023-03-15T09:12:16;99399.59;;;14.44;54.14
8039;BME280;4062;49.844;8.120;2023-03-15T09:14:20;99396.03;;;14.43;53.79
8039;BME280;4062;49.844;8.120;2023-03-15T09:16:21;99405.81;;;14.43;53.94
8039;BME280;4062;49.844;8.120;2023-03-15T09:18:24;99412.91;;;14.42;53.88
8039;BME280;4062;49.844;8.120;2023-03-15T09:20:26;99411.19;;;14.41;53.91
8039;BME280;4062;49.844;8.120;2023-03-15T09:22:27;99419.16;;;14.41;53.93
8039;BME280;4062;49.844;8.120;2023-03-15T09:24:29;99412.97;;;14.41;53.99
8039;BME280;4062;49.844;8.120;2023-03-15T09:26:30;99420.97;;;14.41;53.92
8039;BME280;4062;49.844;8.120;2023-03-15T09:28:31;99427.19;;;14.39;53.81
8039;BME280;4062;49.844;8.120;2023-03-15T09:30:41;99429.84;;;14.39;53.91
8039;BME280;4062;49.844;8.120;2023-03-15T09:32:43;99430.78;;;14.38;53.91
8039;BME280;4062;49.844;8.120;2023-03-15T09:34:45;99443.16;;;14.39;53.81
8039;BME280;4062;49.844;8.120;2023-03-15T09:36:46;99441.41;;;14.38;53.87
8039;BME280;4062;49.844;8.120;2023-03-15T09:38:52;99448.53;;;14.38;53.95
8039;BME280;4062;49.844;8.120;2023-03-15T09:40:58;99449.44;;;14.37;54.16
8039;BME280;4062;49.844;8.120;2023-03-15T09:47:59;99458.34;;;14.36;53.93
8039;BME280;4062;49.844;8.120;2023-03-15T09:50:08;99447.78;;;14.34;53.81
8039;BME280;4062;49.844;8.120;2023-03-15T09:57:22;99446.06;;;14.33;53.94
8039;BME280;4062;49.844;8.120;2023-03-15T09:59:31;99446.09;;;14.32;54.12
8039;BME280;4062;49.844;8.120;2023-03-15T10:01:38;99444.38;;;14.31;53.98
8039;BME280;4062;49.844;8.120;2023-03-15T10:03:50;99442.59;;;14.31;53.93
8039;BME280;4062;49.844;8.120;2023-03-15T10:05:58;99440.84;;;14.30;54.06
8039;BME280;4062;49.844;8.120;2023-03-15T10:08:00;99446.16;;;14.30;53.86
8039;BME280;4062;49.844;8.120;2023-03-15T10:10:02;99440.91;;;14.29;53.89
8039;BME280;4062;49.844;8.120;2023-03-15T10:12:25;99443.56;;;14.29;53.77
8039;BME280;4062;49.844;8.120;2023-03-15T10:17:11;99455.97;;;14.28;53.85
8039;BME280;4062;49.844;8.120;2023-03-15T10:19:57;99452.47;;;14.28;53.77
8039;BME280;4062;49.844;8.120;2023-03-15T10:22:00;99451.66;;;14.26;53.74
8039;BME280;4062;49.844;8.120;2023-03-15T10:24:18;99457.84;;;14.26;53.75
8039;BME280;4062;49.844;8.120;2023-03-15T10:26:32;99456.97;;;14.26;53.69
8039;BME280;4062;49.844;8.120;2023-03-15T10:28:36;99463.16;;;14.26;53.85
8039;BME280;4062;49.844;8.120;2023-03-15T10:30:41;99456.13;;;14.25;53.84
8039;BME280;4062;49.844;8.120;2023-03-15T10:33:01;99461.44;;;14.25;53.81
8039;BME280;4062;49.844;8.120;2023-03-15T10:35:14;99462.28;;;14.26;53.70
8039;BME280;4062;49.844;8.120;2023-03-15T10:37:19;99456.97;;;14.26;53.94
8039;BME280;4062;49.844;8.120;2023-03-15T10:39:24;99454.28;;;14.27;53.68
8039;BME280;4062;49.844;8.120;2023-03-15T10:41:47;99458.63;;;14.28;53.96
8039;BME280;4062;49.844;8.120;2023-03-15T10:44:04;99455.03;;;14.31;53.75
8039;BME280;4062;49.844;8.120;2023-03-15T10:46:21;99453.13;;;14.33;53.65
8039;BME280;4062;49.844;8.120;2023-03-15T10:48:22;99449.53;;;14.35;53.67
8039;BME280;4062;49.844;8.120;2023-03-15T10:50:32;99456.50;;;14.38;53.60
8039;BME280;4062;49.844;8.120;2023-03-15T10:52:44;99448.47;;;14.39;53.73
8039;BME280;4062;49.844;8.120;2023-03-15T10:54:45;99453.72;;;14.41;53.69
8039;BME280;4062;49.844;8.120;2023-03-15T10:59:34;99453.72;;;14.41;53.69
8039;BME280;4062;49.844;8.120;2023-03-15T11:01:35;99446.63;;;14.42;53.51
8039;BME280;4062;49.844;8.120;2023-03-15T11:03:37;99454.53;;;14.43;53.60
8039;BME280;4062;49.844;8.120;2023-03-15T11:05:47;99463.38;;;14.44;53.71
8039;BME280;4062;49.844;8.120;2023-03-15T11:07:59;99453.66;;;14.43;53.68
8039;BME280;4062;49.844;8.120;2023-03-15T11:10:04;99453.66;;;14.43;53.68
8039;BME280;4062;49.844;8.120;2023-03-15T11:12:08;99458.09;;;14.42;53.54
8039;BME280;4062;49.844;8.120;2023-03-15T11:14:11;99458.09;;;14.42;53.55
8039;BME280;4062;49.844;8.120;2023-03-15T11:18:38;99461.69;;;14.41;53.66
8039;BME280;4062;49.844;8.120;2023-03-15T11:20:45;99467.94;;;14.40;53.70
8039;BME280;4062;49.844;8.120;2023-03-15T11:22:46;99468.88;;;14.39;53.88
8039;BME280;4062;49.844;8.120;2023-03-15T11:24:47;99475.94;;;14.40;53.71
8039;BME280;4062;49.844;8.120;2023-03-15T11:26:49;99462.66;;;14.38;53.75
8039;BME280;4062;49.844;8.120;2023-03-15T11:28:59;99468.00;;;14.38;53.85
8039;BME280;4062;49.844;8.120;2023-03-15T11:31:02;99466.25;;;14.37;53.44
8039;BME280;4062;49.844;8.120;2023-03-15T11:33:07;99474.22;;;14.37;53.81
8039;BME280;4062;49.844;8.120;2023-03-15T11:35:21;99480.44;;;14.38;53.58
8039;BME280;4062;49.844;8.120;2023-03-15T11:37:57;99474.22;;;14.37;54.07
8039;BME280;4062;49.844;8.120;2023-03-15T11:42:36;99474.31;;;14.36;53.74
8039;BME280;4062;49.844;8.120;2023-03-15T11:44:50;99481.41;;;14.35;53.68
8039;BME280;4062;49.844;8.120;2023-03-15T11:47:33;99488.50;;;14.35;53.71
8039;BME280;4062;49.844;8.120;2023-03-15T11:49:55;99491.16;;;14.35;53.67
8039;BME280;4062;49.844;8.120;2023-03-15T11:51:56;99487.66;;;14.34;53.77
8039;BME280;4062;49.844;8.120;2023-03-15T11:54:13;99486.78;;;14.34;53.79